sensor_id;sensor_type;location;lat;lon;timestamp;P1;durP1;ratioP1;P2;durP2;ratioP2
27670;SDS011;15077;49.704;9.908;2023-04-25T00:01:34;4.45;;;2.28;;
27670;SDS011;15077;49.704;9.908;2023-04-25T00:04:01;4.57;;;2.65;;
27670;SDS011;15077;49.704;9.908;2023-04-25T00:06:33;4.03;;;3.27;;
27670;SDS011;15077;49.704;9.908;2023-04-25T00:09:01;4.05;;;2.42;;
27670;SDS011;15077;49.704;9.908;2023-04-25T00:11:33;3.15;;;2.38;;
27670;SDS011;15077;49.704;9.908;2023-04-25T00:14:00;2.85;;;2.30;;
27670;SDS011;15077;49.704;9.908;2023-04-25T00:16:28;3.28;;;2.45;;
27670;SDS011;15077;49.704;9.908;2023-04-25T00:18:58;3.17;;;2.60;;
27670;SDS011;15077;49.704;9.908;2023-04-25T00:21:24;4.90;;;2.50;;
27670;SDS011;15077;49.704;9.908;2023-04-25T00:23:52;4.30;;;3.08;;
27670;SDS011;15077;49.704;9.908;2023-04-25T00:26:18;5.05;;;3.20;;
27670;SDS011;15077;49.704;9.908;2023-04-25T00:28:47;4.45;;;3.28;;
27670;SDS011;15077;49.704;9.908;2023-04-25T00:31:15;4.40;;;3.30;;
27670;SDS011;15077;49.704;9.908;2023-04-25T00:33:42;3.05;;;2.45;;
27670;SDS011;15077;49.704;9.908;2023-04-25T00:36:08;4.13;;;3.22;;
27670;SDS011;15077;49.704;9.908;2023-04-25T00:38:34;4.68;;;2.50;;
27670;SDS011;15077;49.704;9.908;2023-04-25T00:41:00;4.85;;;3.45;;
27670;SDS011;15077;49.704;9.908;2023-04-25T00:43:26;4.53;;;3.35;;
27670;SDS011;15077;49.704;9.908;2023-04-25T00:45:54;3.40;;;2.72;;
27670;SDS011;15077;49.704;9.908;2023-04-25T00:48:22;3.22;;;2.70;;
27670;SDS011;15077;49.704;9.908;2023-04-25T00:50:51;3.53;;;3.03;;
27670;SDS011;15077;49.704;9.908;2023-04-25T00:53:21;3.05;;;2.60;;
27670;SDS011;15077;49.704;9.908;2023-04-25T00:55:51;3.13;;;2.42;;
27670;SDS011;15077;49.704;9.908;2023-04-25T00:58:19;3.95;;;3.08;;
27670;SDS011;15077;49.704;9.908;2023-04-25T01:00:47;3.03;;;2.38;;
27670;SDS011;15077;49.704;9.908;2023-04-25T01:03:18;3.45;;;2.53;;
27670;SDS011;15077;49.704;9.908;2023-04-25T01:05:47;2.83;;;2.50;;
27670;SDS011;15077;49.704;9.908;2023-04-25T01:08:15;3.47;;;2.60;;
27670;SDS011;15077;49.704;9.908;2023-04-25T01:10:42;3.08;;;2.45;;
27670;SDS011;15077;49.704;9.908;2023-04-25T01:13:12;3.50;;;2.33;;
27670;SDS011;15077;49.704;9.908;2023-04-25T01:15:38;2.95;;;2.10;;
27670;SDS011;15077;49.704;9.908;2023-04-25T01:18:05;3.75;;;2.70;;
27670;SDS011;15077;49.704;9.908;2023-04-25T01:20:33;5.03;;;3.13;;
27670;SDS011;15077;49.704;9.908;2023-04-25T01:23:02;3.47;;;2.47;;
27670;SDS011;15077;49.704;9.908;2023-04-25T01:25:29;4.00;;;3.20;;
27670;SDS011;15077;49.704;9.908;2023-04-25T01:27:58;4.97;;;2.92;;
27670;SDS011;15077;49.704;9.908;2023-04-25T01:30:26;4.25;;;3.28;;
27670;SDS011;15077;49.704;9.908;2023-04-25T01:32:54;4.53;;;3.42;;
27670;SDS011;15077;49.704;9.908;2023-04-25T01:35:23;5.22;;;3.88;;
27670;SDS011;15077;49.704;9.908;2023-04-25T01:37:49;5.43;;;3.80;;
27670;SDS011;15077;49.704;9.908;2023-04-25T01:40:16;4.60;;;3.20;;
27670;SDS011;15077;49.704;9.908;2023-04-25T01:42:46;5.30;;;3.72;;
27670;SDS011;15077;49.704;9.908;2023-04-25T01:45:13;5.22;;;3.45;;
27670;SDS011;15077;49.704;9.908;2023-04-25T01:47:41;4.75;;;3.35;;
27670;SDS011;15077;49.704;9.908;2023-04-25T01:50:08;4.32;;;2.58;;
27670;SDS011;15077;49.704;9.908;2023-04-25T01:52:36;4.55;;;3.20;;
27670;SDS011;15077;49.704;9.908;2023-04-25T01:55:02;4.53;;;3.50;;
27670;SDS011;15077;49.704;9.908;2023-04-25T01:57:28;3.45;;;2.70;;
27670;SDS011;15077;49.704;9.908;2023-04-25T02:00:00;3.15;;;2.42;;
27670;SDS011;15077;49.704;9.908;2023-04-25T02:02:31;2.92;;;2.40;;
27670;SDS011;15077;49.704;9.908;2023-04-25T02:05:02;2.50;;;1.98;;
27670;SDS011;15077;49.704;9.908;2023-04-25T02:07:29;4.30;;;2.35;;
27670;SDS011;15077;49.704;9.908;2023-04-25T02:09:57;4.03;;;2.20;;
27670;SDS011;15077;49.704;9.908;2023-04-25T02:12:23;3.20;;;2.20;;
27670;SDS011;15077;49.704;9.908;2023-04-25T02:14:51;3.38;;;2.40;;
27670;SDS011;15077;49.704;9.908;2023-04-25T02:17:17;3.30;;;1.95;;
27670;SDS011;15077;49.704;9.908;2023-04-25T02:19:44;2.58;;;1.92;;
27670;SDS011;15077;49.704;9.908;2023-04-25T02:22:10;1.80;;;1.20;;
27670;SDS011;15077;49.704;9.908;2023-04-25T02:24:38;2.75;;;1.75;;
27670;SDS011;15077;49.704;9.908;2023-04-25T02:27:06;2.28;;;1.67;;
27670;SDS011;15077;49.704;9.908;2023-04-25T02:29:34;3.17;;;1.90;;
27670;SDS011;15077;49.704;9.908;2023-04-25T02:31:59;2.85;;;1.77;;
27670;SDS011;15077;49.704;9.908;2023-04-25T02:34:25;3.25;;;1.77;;
27670;SDS011;15077;49.704;9.908;2023-04-25T02:36:53;3.00;;;1.67;;
27670;SDS011;15077;49.704;9.908;2023-04-25T02:39:20;3.55;;;1.63;;
27670;SDS011;15077;49.704;9.908;2023-04-25T02:41:52;2.17;;;1.45;;
27670;SDS011;15077;49.704;9.908;2023-04-25T02:44:18;1.95;;;1.15;;
27670;SDS011;15077;49.704;9.908;2023-04-25T02:46:46;2.65;;;1.40;;
27670;SDS011;15077;49.704;9.908;2023-04-25T02:49:13;2.17;;;1.65;;
27670;SDS011;15077;49.704;9.908;2023-04-25T02:51:40;2.08;;;1.40;;
27670;SDS011;15077;49.704;9.908;2023-04-25T02:54:06;2.20;;;1.73;;
27670;SDS011;15077;49.704;9.908;2023-04-25T02:56:36;3.10;;;1.75;;
27670;SDS011;15077;49.704;9.908;2023-04-25T02:59:04;2.53;;;1.45;;
27670;SDS011;15077;49.704;9.908;2023-04-25T03:01:32;2.80;;;1.60;;
27670;SDS011;15077;49.704;9.908;2023-04-25T03:03:57;1.75;;;1.40;;
27670;SDS011;15077;49.704;9.908;2023-04-25T03:06:25;2.10;;;1.30;;
27670;SDS011;15077;49.704;9.908;2023-04-25T03:08:52;2.15;;;1.20;;
27670;SDS011;15077;49.704;9.908;2023-04-25T03:11:18;1.38;;;0.80;;
27670;SDS011;15077;49.704;9.908;2023-04-25T03:13:45;1.33;;;0.90;;
27670;SDS011;15077;49.704;9.908;2023-04-25T03:16:11;2.05;;;1.38;;
27670;SDS011;15077;49.704;9.908;2023-04-25T03:18:38;1.55;;;0.93;;
27670;SDS011;15077;49.704;9.908;2023-04-25T03:21:06;1.95;;;1.10;;
27670;SDS011;15077;49.704;9.908;2023-04-25T03:23:34;1.63;;;1.10;;
27670;SDS011;15077;49.704;9.908;2023-04-25T03:26:01;1.33;;;0.90;;
27670;SDS011;15077;49.704;9.908;2023-04-25T03:28:28;1.40;;;1.10;;
27670;SDS011;15077;49.704;9.908;2023-04-25T03:30:58;1.92;;;1.23;;
27670;SDS011;15077;49.704;9.908;2023-04-25T03:33:26;4.55;;;2.58;;
27670;SDS011;15077;49.704;9.908;2023-04-25T03:35:52;12.20;;;6.47;;
27670;SDS011;15077;49.704;9.908;2023-04-25T03:38:20;10.15;;;6.82;;
27670;SDS011;15077;49.704;9.908;2023-04-25T03:40:46;7.65;;;5.53;;
27670;SDS011;15077;49.704;9.908;2023-04-25T03:43:12;7.63;;;3.83;;
27670;SDS011;15077;49.704;9.908;2023-04-25T03:45:40;6.15;;;3.55;;
27670;SDS011;15077;49.704;9.908;2023-04-25T03:48:06;4.97;;;3.20;;
27670;SDS011;15077;49.704;9.908;2023-04-25T03:50:31;6.07;;;3.28;;
27670;SDS011;15077;49.704;9.908;2023-04-25T03:52:57;4.28;;;2.72;;
27670;SDS011;15077;49.704;9.908;2023-04-25T03:55:23;4.13;;;2.60;;
27670;SDS011;15077;49.704;9.908;2023-04-25T03:57:49;5.80;;;3.28;;
27670;SDS011;15077;49.704;9.908;2023-04-25T04:00:14;4.82;;;2.75;;
27670;SDS011;15077;49.704;9.908;2023-04-25T04:02:40;3.72;;;2.33;;
27670;SDS011;15077;49.704;9.908;2023-04-25T04:05:06;3.03;;;1.95;;
27670;SDS011;15077;49.704;9.908;2023-04-25T04:07:32;3.22;;;2.15;;
27670;SDS011;15077;49.704;9.908;2023-04-25T04:10:01;2.80;;;1.90;;
27670;SDS011;15077;49.704;9.908;2023-04-25T04:12:27;3.15;;;2.00;;
27670;SDS011;15077;49.704;9.908;2023-04-25T04:14:54;3.35;;;2.15;;
27670;SDS011;15077;49.704;9.908;2023-04-25T04:17:20;2.70;;;1.90;;
27670;SDS011;15077;49.704;9.908;2023-04-25T04:19:45;2.40;;;1.67;;
27670;SDS011;15077;49.704;9.908;2023-04-25T04:22:11;3.63;;;1.95;;
27670;SDS011;15077;49.704;9.908;2023-04-25T04:24:37;4.38;;;2.40;;
27670;SDS011;15077;49.704;9.908;2023-04-25T04:27:02;4.45;;;2.67;;
27670;SDS011;15077;49.704;9.908;2023-04-25T04:29:29;3.47;;;2.22;;
27670;SDS011;15077;49.704;9.908;2023-04-25T04:31:54;3.58;;;2.17;;
27670;SDS011;15077;49.704;9.908;2023-04-25T04:34:20;3.42;;;2.13;;
27670;SDS011;15077;49.704;9.908;2023-04-25T04:36:46;3.47;;;2.10;;
27670;SDS011;15077;49.704;9.908;2023-04-25T04:39:12;3.80;;;2.60;;
27670;SDS011;15077;49.704;9.908;2023-04-25T04:41:39;4.18;;;2.90;;
27670;SDS011;15077;49.704;9.908;2023-04-25T04:44:05;3.38;;;2.45;;
27670;SDS011;15077;49.704;9.908;2023-04-25T04:46:35;5.00;;;3.67;;
27670;SDS011;15077;49.704;9.908;2023-04-25T04:49:06;4.55;;;3.05;;
27670;SDS011;15077;49.704;9.908;2023-04-25T04:51:37;5.30;;;2.97;;
27670;SDS011;15077;49.704;9.908;2023-04-25T04:54:03;3.47;;;2.45;;
27670;SDS011;15077;49.704;9.908;2023-04-25T04:56:29;4.57;;;2.97;;
27670;SDS011;15077;49.704;9.908;2023-04-25T04:58:58;3.55;;;2.55;;
27670;SDS011;15077;49.704;9.908;2023-04-25T05:01:25;5.40;;;3.20;;
27670;SDS011;15077;49.704;9.908;2023-04-25T05:03:51;4.55;;;2.88;;
27670;SDS011;15077;49.704;9.908;2023-04-25T05:06:20;4.10;;;3.22;;
27670;SDS011;15077;49.704;9.908;2023-04-25T05:08:46;3.88;;;2.95;;
27670;SDS011;15077;49.704;9.908;2023-04-25T05:11:11;4.30;;;3.38;;
27670;SDS011;15077;49.704;9.908;2023-04-25T05:13:37;4.15;;;3.10;;
27670;SDS011;15077;49.704;9.908;2023-04-25T05:16:03;5.45;;;3.80;;
27670;SDS011;15077;49.704;9.908;2023-04-25T05:18:29;4.57;;;3.60;;
27670;SDS011;15077;49.704;9.908;2023-04-25T05:20:55;4.43;;;3.35;;
27670;SDS011;15077;49.704;9.908;2023-04-25T05:23:20;3.65;;;2.30;;
27670;SDS011;15077;49.704;9.908;2023-04-25T05:25:46;3.28;;;2.55;;
27670;SDS011;15077;49.704;9.908;2023-04-25T05:28:12;3.15;;;2.47;;
27670;SDS011;15077;49.704;9.908;2023-04-25T05:30:38;4.28;;;2.80;;
27670;SDS011;15077;49.704;9.908;2023-04-25T05:33:04;3.20;;;2.00;;
27670;SDS011;15077;49.704;9.908;2023-04-25T05:35:30;4.50;;;3.05;;
27670;SDS011;15077;49.704;9.908;2023-04-25T05:37:56;4.40;;;2.78;;
27670;SDS011;15077;49.704;9.908;2023-04-25T05:40:22;3.40;;;2.35;;
27670;SDS011;15077;49.704;9.908;2023-04-25T05:42:47;4.50;;;3.22;;
27670;SDS011;15077;49.704;9.908;2023-04-25T05:45:13;4.05;;;2.88;;
27670;SDS011;15077;49.704;9.908;2023-04-25T05:47:39;5.38;;;4.22;;
27670;SDS011;15077;49.704;9.908;2023-04-25T05:50:05;4.25;;;3.40;;
27670;SDS011;15077;49.704;9.908;2023-04-25T05:52:32;4.07;;;3.05;;
27670;SDS011;15077;49.704;9.908;2023-04-25T05:54:57;5.03;;;3.40;;
27670;SDS011;15077;49.704;9.908;2023-04-25T05:57:24;3.63;;;2.83;;
27670;SDS011;15077;49.704;9.908;2023-04-25T05:59:51;6.65;;;3.53;;
27670;SDS011;15077;49.704;9.908;2023-04-25T06:02:18;6.97;;;3.83;;
27670;SDS011;15077;49.704;9.908;2023-04-25T06:04:51;5.18;;;3.53;;
27670;SDS011;15077;49.704;9.908;2023-04-25T06:07:17;4.28;;;3.05;;
27670;SDS011;15077;49.704;9.908;2023-04-25T06:09:44;7.18;;;4.85;;
27670;SDS011;15077;49.704;9.908;2023-04-25T06:12:11;5.65;;;4.65;;
27670;SDS011;15077;49.704;9.908;2023-04-25T06:14:36;6.20;;;3.85;;
27670;SDS011;15077;49.704;9.908;2023-04-25T06:17:03;8.48;;;5.55;;
27670;SDS011;15077;49.704;9.908;2023-04-25T06:19:33;8.15;;;5.97;;
27670;SDS011;15077;49.704;9.908;2023-04-25T06:22:00;10.85;;;5.90;;
27670;SDS011;15077;49.704;9.908;2023-04-25T06:24:27;7.22;;;4.45;;
27670;SDS011;15077;49.704;9.908;2023-04-25T06:26:53;9.75;;;4.78;;
27670;SDS011;15077;49.704;9.908;2023-04-25T06:29:19;6.85;;;4.95;;
27670;SDS011;15077;49.704;9.908;2023-04-25T06:31:45;5.57;;;3.97;;
27670;SDS011;15077;49.704;9.908;2023-04-25T06:34:11;6.60;;;3.65;;
27670;SDS011;15077;49.704;9.908;2023-04-25T06:36:37;8.95;;;6.07;;
27670;SDS011;15077;49.704;9.908;2023-04-25T06:39:03;7.82;;;6.20;;
27670;SDS011;15077;49.704;9.908;2023-04-25T06:41:29;7.97;;;5.68;;
27670;SDS011;15077;49.704;9.908;2023-04-25T06:43:55;9.00;;;6.40;;
27670;SDS011;15077;49.704;9.908;2023-04-25T06:46:21;10.75;;;6.47;;
27670;SDS011;15077;49.704;9.908;2023-04-25T06:48:46;11.70;;;7.10;;
27670;SDS011;15077;49.704;9.908;2023-04-25T06:51:12;11.55;;;7.00;;
27670;SDS011;15077;49.704;9.908;2023-04-25T06:53:40;8.90;;;6.05;;
27670;SDS011;15077;49.704;9.908;2023-04-25T06:56:06;8.43;;;5.15;;
27670;SDS011;15077;49.704;9.908;2023-04-25T06:58:32;6.10;;;4.60;;
27670;SDS011;15077;49.704;9.908;2023-04-25T07:00:57;7.13;;;4.53;;
27670;SDS011;15077;49.704;9.908;2023-04-25T07:03:23;9.57;;;6.00;;
27670;SDS011;15077;49.704;9.908;2023-04-25T07:05:49;9.07;;;6.82;;
27670;SDS011;15077;49.704;9.908;2023-04-25T07:08:15;7.50;;;5.40;;
27670;SDS011;15077;49.704;9.908;2023-04-25T07:10:42;7.63;;;5.53;;
27670;SDS011;15077;49.704;9.908;2023-04-25T07:13:08;6.38;;;4.50;;
27670;SDS011;15077;49.704;9.908;2023-04-25T07:15:34;7.32;;;4.72;;
27670;SDS011;15077;49.704;9.908;2023-04-25T07:17:59;7.05;;;5.18;;
27670;SDS011;15077;49.704;9.908;2023-04-25T07:20:25;5.28;;;4.18;;
27670;SDS011;15077;49.704;9.908;2023-04-25T07:22:52;8.60;;;4.65;;
27670;SDS011;15077;49.704;9.908;2023-04-25T07:25:18;5.35;;;3.88;;
27670;SDS011;15077;49.704;9.908;2023-04-25T07:27:45;8.38;;;4.80;;
27670;SDS011;15077;49.704;9.908;2023-04-25T07:30:11;6.30;;;4.65;;
27670;SDS011;15077;49.704;9.908;2023-04-25T07:32:37;6.95;;;4.60;;
27670;SDS011;15077;49.704;9.908;2023-04-25T07:35:04;5.47;;;3.97;;
27670;SDS011;15077;49.704;9.908;2023-04-25T07:37:31;6.53;;;4.18;;
27670;SDS011;15077;49.704;9.908;2023-04-25T07:39:58;5.60;;;3.75;;
27670;SDS011;15077;49.704;9.908;2023-04-25T07:42:24;6.20;;;3.83;;
27670;SDS011;15077;49.704;9.908;2023-04-25T07:44:50;6.10;;;3.75;;
27670;SDS011;15077;49.704;9.908;2023-04-25T07:47:16;6.22;;;3.45;;
27670;SDS011;15077;49.704;9.908;2023-04-25T07:49:44;4.85;;;3.08;;
27670;SDS011;15077;49.704;9.908;2023-04-25T07:52:10;6.70;;;3.60;;
27670;SDS011;15077;49.704;9.908;2023-04-25T07:54:36;5.75;;;3.17;;
27670;SDS011;15077;49.704;9.908;2023-04-25T07:57:02;5.30;;;3.13;;
27670;SDS011;15077;49.704;9.908;2023-04-25T07:59:28;6.30;;;3.40;;
27670;SDS011;15077;49.704;9.908;2023-04-25T08:01:54;7.40;;;2.97;;
27670;SDS011;15077;49.704;9.908;2023-04-25T08:04:21;4.63;;;2.78;;
27670;SDS011;15077;49.704;9.908;2023-04-25T08:06:47;4.18;;;2.50;;
27670;SDS011;15077;49.704;9.908;2023-04-25T08:09:13;4.50;;;2.60;;
27670;SDS011;15077;49.704;9.908;2023-04-25T08:11:40;18.58;;;10.68;;
27670;SDS011;15077;49.704;9.908;2023-04-25T08:14:08;7.57;;;4.57;;
27670;SDS011;15077;49.704;9.908;2023-04-25T08:16:34;5.22;;;3.50;;
27670;SDS011;15077;49.704;9.908;2023-04-25T08:19:00;6.85;;;4.00;;
27670;SDS011;15077;49.704;9.908;2023-04-25T08:21:26;6.53;;;3.25;;
27670;SDS011;15077;49.704;9.908;2023-04-25T08:23:52;6.88;;;2.97;;
27670;SDS011;15077;49.704;9.908;2023-04-25T08:26:18;3.95;;;2.70;;
27670;SDS011;15077;49.704;9.908;2023-04-25T08:28:43;3.35;;;2.50;;
27670;SDS011;15077;49.704;9.908;2023-04-25T08:31:09;5.43;;;2.53;;
27670;SDS011;15077;49.704;9.908;2023-04-25T08:33:35;3.17;;;2.05;;
27670;SDS011;15077;49.704;9.908;2023-04-25T08:36:01;5.65;;;1.70;;
27670;SDS011;15077;49.704;9.908;2023-04-25T08:38:28;3.80;;;3.00;;
27670;SDS011;15077;49.704;9.908;2023-04-25T08:40:54;5.63;;;3.47;;
27670;SDS011;15077;49.704;9.908;2023-04-25T08:43:21;9.35;;;3.63;;
27670;SDS011;15077;49.704;9.908;2023-04-25T08:45:50;3.90;;;2.78;;
27670;SDS011;15077;49.704;9.908;2023-04-25T08:48:19;7.65;;;6.10;;
27670;SDS011;15077;49.704;9.908;2023-04-25T08:50:49;13.77;;;8.20;;
27670;SDS011;15077;49.704;9.908;2023-04-25T08:53:30;5.55;;;3.05;;
27670;SDS011;15077;49.704;9.908;2023-04-25T08:55:58;6.07;;;4.30;;
27670;SDS011;15077;49.704;9.908;2023-04-25T08:58:29;4.28;;;2.88;;
27670;SDS011;15077;49.704;9.908;2023-04-25T09:00:55;5.00;;;2.70;;
27670;SDS011;15077;49.704;9.908;2023-04-25T09:03:21;3.00;;;2.15;;
27670;SDS011;15077;49.704;9.908;2023-04-25T09:05:47;4.68;;;2.30;;
27670;SDS011;15077;49.704;9.908;2023-04-25T09:08:13;3.85;;;2.08;;
27670;SDS011;15077;49.704;9.908;2023-04-25T09:10:39;3.78;;;2.13;;
27670;SDS011;15077;49.704;9.908;2023-04-25T09:13:12;4.95;;;2.40;;
27670;SDS011;15077;49.704;9.908;2023-04-25T09:15:47;3.22;;;1.70;;
27670;SDS011;15077;49.704;9.908;2023-04-25T09:18:22;2.80;;;1.83;;
27670;SDS011;15077;49.704;9.908;2023-04-25T09:20:58;4.03;;;1.98;;
27670;SDS011;15077;49.704;9.908;2023-04-25T09:23:43;4.38;;;2.17;;
27670;SDS011;15077;49.704;9.908;2023-04-25T09:26:15;4.03;;;1.83;;
27670;SDS011;15077;49.704;9.908;2023-04-25T09:28:43;3.10;;;2.03;;
27670;SDS011;15077;49.704;9.908;2023-04-25T09:31:12;4.57;;;1.80;;
27670;SDS011;15077;49.704;9.908;2023-04-25T09:33:47;2.45;;;1.98;;
27670;SDS011;15077;49.704;9.908;2023-04-25T09:36:12;4.38;;;1.90;;
27670;SDS011;15077;49.704;9.908;2023-04-25T09:38:43;2.38;;;1.55;;
27670;SDS011;15077;49.704;9.908;2023-04-25T09:43:37;2.83;;;1.58;;
27670;SDS011;15077;49.704;9.908;2023-04-25T09:46:08;3.83;;;1.67;;
27670;SDS011;15077;49.704;9.908;2023-04-25T09:48:36;3.45;;;2.08;;
27670;SDS011;15077;49.704;9.908;2023-04-25T09:51:05;3.72;;;1.92;;
27670;SDS011;15077;49.704;9.908;2023-04-25T09:53:33;3.83;;;1.98;;
27670;SDS011;15077;49.704;9.908;2023-04-25T09:56:05;4.10;;;1.73;;
27670;SDS011;15077;49.704;9.908;2023-04-25T09:58:34;4.28;;;2.08;;
27670;SDS011;15077;49.704;9.908;2023-04-25T10:01:03;2.63;;;1.80;;
27670;SDS011;15077;49.704;9.908;2023-04-25T10:03:33;3.80;;;1.60;;
27670;SDS011;15077;49.704;9.908;2023-04-25T10:06:02;3.58;;;1.70;;
27670;SDS011;15077;49.704;9.908;2023-04-25T10:08:34;5.55;;;3.00;;
27670;SDS011;15077;49.704;9.908;2023-04-25T10:11:05;3.92;;;1.83;;
27670;SDS011;15077;49.704;9.908;2023-04-25T10:13:34;2.45;;;1.92;;
27670;SDS011;15077;49.704;9.908;2023-04-25T10:16:01;2.25;;;1.65;;
27670;SDS011;15077;49.704;9.908;2023-04-25T10:18:30;3.10;;;2.00;;
27670;SDS011;15077;49.704;9.908;2023-04-25T10:20:58;4.53;;;2.83;;
27670;SDS011;15077;49.704;9.908;2023-04-25T10:25:57;8.13;;;4.38;;
27670;SDS011;15077;49.704;9.908;2023-04-25T10:28:23;14.98;;;9.38;;
27670;SDS011;15077;49.704;9.908;2023-04-25T10:30:56;11.45;;;7.05;;
27670;SDS011;15077;49.704;9.908;2023-04-25T10:33:39;7.07;;;4.03;;
27670;SDS011;15077;49.704;9.908;2023-04-25T10:36:17;5.28;;;2.80;;
27670;SDS011;15077;49.704;9.908;2023-04-25T10:38:48;11.15;;;7.20;;
27670;SDS011;15077;49.704;9.908;2023-04-25T10:41:17;4.50;;;3.28;;
27670;SDS011;15077;49.704;9.908;2023-04-25T10:43:45;3.00;;;2.17;;
27670;SDS011;15077;49.704;9.908;2023-04-25T10:46:22;3.10;;;2.10;;
27670;SDS011;15077;49.704;9.908;2023-04-25T10:51:24;4.88;;;3.00;;
27670;SDS011;15077;49.704;9.908;2023-04-25T10:54:04;5.10;;;2.90;;
27670;SDS011;15077;49.704;9.908;2023-04-25T10:56:33;3.08;;;1.90;;
27670;SDS011;15077;49.704;9.908;2023-04-25T10:59:11;4.10;;;2.75;;
27670;SDS011;15077;49.704;9.908;2023-04-25T11:01:42;3.28;;;2.08;;
27670;SDS011;15077;49.704;9.908;2023-04-25T11:04:31;3.15;;;1.70;;
27670;SDS011;15077;49.704;9.908;2023-04-25T11:09:53;6.43;;;4.25;;
27670;SDS011;15077;49.704;9.908;2023-04-25T11:12:19;6.75;;;3.50;;
27670;SDS011;15077;49.704;9.908;2023-04-25T11:14:45;7.25;;;4.25;;
27670;SDS011;15077;49.704;9.908;2023-04-25T11:17:11;5.65;;;3.70;;
27670;SDS011;15077;49.704;9.908;2023-04-25T11:19:36;3.22;;;2.35;;
27670;SDS011;15077;49.704;9.908;2023-04-25T11:22:02;4.10;;;1.90;;
27670;SDS011;15077;49.704;9.908;2023-04-25T11:24:29;4.63;;;1.50;;
27670;SDS011;15077;49.704;9.908;2023-04-25T11:27:00;3.75;;;1.65;;
27670;SDS011;15077;49.704;9.908;2023-04-25T11:29:28;2.72;;;1.50;;
27670;SDS011;15077;49.704;9.908;2023-04-25T11:31:55;2.30;;;1.40;;
27670;SDS011;15077;49.704;9.908;2023-04-25T11:34:26;4.03;;;1.30;;
27670;SDS011;15077;49.704;9.908;2023-04-25T11:36:56;3.20;;;1.67;;
27670;SDS011;15077;49.704;9.908;2023-04-25T11:39:23;4.38;;;2.55;;
27670;SDS011;15077;49.704;9.908;2023-04-25T11:41:51;2.47;;;1.75;;
27670;SDS011;15077;49.704;9.908;2023-04-25T11:44:17;3.03;;;1.73;;
27670;SDS011;15077;49.704;9.908;2023-04-25T11:46:44;3.42;;;2.05;;
27670;SDS011;15077;49.704;9.908;2023-04-25T11:49:11;3.22;;;1.73;;
27670;SDS011;15077;49.704;9.908;2023-04-25T11:51:38;10.38;;;7.10;;
27670;SDS011;15077;49.704;9.908;2023-04-25T11:54:08;15.95;;;11.90;;
27670;SDS011;15077;49.704;9.908;2023-04-25T11:56:35;8.52;;;6.25;;
27670;SDS011;15077;49.704;9.908;2023-04-25T11:59:02;5.40;;;4.78;;
27670;SDS011;15077;49.704;9.908;2023-04-25T12:01:30;4.05;;;3.10;;
27670;SDS011;15077;49.704;9.908;2023-04-25T12:03:58;4.72;;;2.65;;
27670;SDS011;15077;49.704;9.908;2023-04-25T12:06:46;4.68;;;2.63;;
27670;SDS011;15077;49.704;9.908;2023-04-25T12:09:14;6.30;;;4.10;;
27670;SDS011;15077;49.704;9.908;2023-04-25T12:11:56;3.97;;;2.83;;
27670;SDS011;15077;49.704;9.908;2023-04-25T12:14:27;5.72;;;2.67;;
27670;SDS011;15077;49.704;9.908;2023-04-25T12:16:57;2.55;;;1.60;;
27670;SDS011;15077;49.704;9.908;2023-04-25T12:19:25;2.88;;;1.70;;
27670;SDS011;15077;49.704;9.908;2023-04-25T12:21:58;3.17;;;1.77;;
27670;SDS011;15077;49.704;9.908;2023-04-25T12:24:28;3.75;;;2.83;;
27670;SDS011;15077;49.704;9.908;2023-04-25T12:29:31;3.45;;;2.33;;
27670;SDS011;15077;49.704;9.908;2023-04-25T12:31:58;4.40;;;2.30;;
27670;SDS011;15077;49.704;9.908;2023-04-25T12:34:27;3.22;;;1.90;;
27670;SDS011;15077;49.704;9.908;2023-04-25T12:36:53;5.70;;;2.40;;
27670;SDS011;15077;49.704;9.908;2023-04-25T12:39:21;3.25;;;1.70;;
27670;SDS011;15077;49.704;9.908;2023-04-25T12:41:50;2.97;;;1.40;;
27670;SDS011;15077;49.704;9.908;2023-04-25T12:44:19;2.80;;;1.77;;
27670;SDS011;15077;49.704;9.908;2023-04-25T12:46:46;3.55;;;1.67;;
27670;SDS011;15077;49.704;9.908;2023-04-25T12:49:13;3.58;;;2.42;;
27670;SDS011;15077;49.704;9.908;2023-04-25T12:51:39;3.35;;;2.10;;
27670;SDS011;15077;49.704;9.908;2023-04-25T12:54:06;3.72;;;2.10;;
27670;SDS011;15077;49.704;9.908;2023-04-25T12:56:33;3.03;;;1.77;;
27670;SDS011;15077;49.704;9.908;2023-04-25T12:59:01;3.40;;;1.90;;
27670;SDS011;15077;49.704;9.908;2023-04-25T13:01:30;4.03;;;2.20;;
27670;SDS011;15077;49.704;9.908;2023-04-25T13:03:56;3.03;;;2.20;;
27670;SDS011;15077;49.704;9.908;2023-04-25T13:06:22;4.93;;;2.38;;
27670;SDS011;15077;49.704;9.908;2023-04-25T13:08:48;8.90;;;4.72;;
27670;SDS011;15077;49.704;9.908;2023-04-25T13:11:14;5.72;;;2.53;;
27670;SDS011;15077;49.704;9.908;2023-04-25T13:13:40;4.15;;;2.67;;
27670;SDS011;15077;49.704;9.908;2023-04-25T13:16:06;4.43;;;3.08;;
27670;SDS011;15077;49.704;9.908;2023-04-25T13:18:32;5.18;;;2.95;;
27670;SDS011;15077;49.704;9.908;2023-04-25T13:20:59;4.60;;;2.60;;
27670;SDS011;15077;49.704;9.908;2023-04-25T13:23:25;16.20;;;8.50;;
27670;SDS011;15077;49.704;9.908;2023-04-25T13:25:54;8.98;;;4.70;;
27670;SDS011;15077;49.704;9.908;2023-04-25T13:28:22;7.20;;;4.70;;
27670;SDS011;15077;49.704;9.908;2023-04-25T13:30:52;4.65;;;3.55;;
27670;SDS011;15077;49.704;9.908;2023-04-25T13:33:18;4.82;;;3.50;;
27670;SDS011;15077;49.704;9.908;2023-04-25T13:35:45;5.00;;;2.28;;
27670;SDS011;15077;49.704;9.908;2023-04-25T13:38:18;5.22;;;3.42;;
27670;SDS011;15077;49.704;9.908;2023-04-25T13:40:48;5.78;;;3.97;;
27670;SDS011;15077;49.704;9.908;2023-04-25T13:43:17;6.32;;;3.95;;
27670;SDS011;15077;49.704;9.908;2023-04-25T13:45:47;5.35;;;3.60;;
27670;SDS011;15077;49.704;9.908;2023-04-25T13:48:14;5.55;;;4.10;;
27670;SDS011;15077;49.704;9.908;2023-04-25T13:50:39;7.50;;;5.25;;
27670;SDS011;15077;49.704;9.908;2023-04-25T13:53:06;8.68;;;5.88;;
27670;SDS011;15077;49.704;9.908;2023-04-25T13:55:33;7.63;;;4.50;;
27670;SDS011;15077;49.704;9.908;2023-04-25T13:58:01;6.03;;;4.60;;
27670;SDS011;15077;49.704;9.908;2023-04-25T14:00:32;4.60;;;4.10;;
27670;SDS011;15077;49.704;9.908;2023-04-25T14:03:03;5.35;;;3.30;;
27670;SDS011;15077;49.704;9.908;2023-04-25T14:05:31;4.72;;;2.50;;
27670;SDS011;15077;49.704;9.908;2023-04-25T14:08:02;4.72;;;2.78;;
27670;SDS011;15077;49.704;9.908;2023-04-25T14:10:34;3.70;;;2.47;;
27670;SDS011;15077;49.704;9.908;2023-04-25T14:13:00;2.80;;;2.20;;
27670;SDS011;15077;49.704;9.908;2023-04-25T14:15:28;4.63;;;2.85;;
27670;SDS011;15077;49.704;9.908;2023-04-25T14:17:55;3.05;;;2.28;;
27670;SDS011;15077;49.704;9.908;2023-04-25T14:20:21;4.80;;;3.00;;
27670;SDS011;15077;49.704;9.908;2023-04-25T14:22:48;5.10;;;2.42;;
27670;SDS011;15077;49.704;9.908;2023-04-25T14:25:14;3.53;;;2.25;;
27670;SDS011;15077;49.704;9.908;2023-04-25T14:27:40;4.25;;;3.15;;
27670;SDS011;15077;49.704;9.908;2023-04-25T14:30:06;5.38;;;2.35;;
27670;SDS011;15077;49.704;9.908;2023-04-25T14:32:34;3.30;;;2.10;;
27670;SDS011;15077;49.704;9.908;2023-04-25T14:35:00;3.20;;;1.83;;
27670;SDS011;15077;49.704;9.908;2023-04-25T14:37:25;3.97;;;2.10;;
27670;SDS011;15077;49.704;9.908;2023-04-25T14:39:51;4.78;;;2.10;;
27670;SDS011;15077;49.704;9.908;2023-04-25T14:42:17;4.20;;;1.95;;
27670;SDS011;15077;49.704;9.908;2023-04-25T14:44:42;3.60;;;2.70;;
27670;SDS011;15077;49.704;9.908;2023-04-25T14:47:08;8.05;;;2.53;;
27670;SDS011;15077;49.704;9.908;2023-04-25T14:49:34;3.72;;;2.70;;
27670;SDS011;15077;49.704;9.908;2023-04-25T14:52:00;3.45;;;2.28;;
27670;SDS011;15077;49.704;9.908;2023-04-25T14:54:26;5.78;;;2.05;;
27670;SDS011;15077;49.704;9.908;2023-04-25T14:56:51;3.45;;;2.17;;
27670;SDS011;15077;49.704;9.908;2023-04-25T14:59:17;3.72;;;2.67;;
27670;SDS011;15077;49.704;9.908;2023-04-25T15:01:45;4.57;;;2.97;;
27670;SDS011;15077;49.704;9.908;2023-04-25T15:04:11;3.80;;;1.95;;